Orbital elements of SWARM A
| Launched | 21 November 2013 |
| Flight ended | – |
| Launch site | Plesetsk Missile and Space Complex, Russia |
| Owner | European Space Agency |
| NORAD ID | 39452 |
| Date fetched |
Epoch osculation |
Inc. [°] |
Ecc. | RA asc node [hr] |
Arg Peri. [°] |
Mean anom [°] |
Mean motion [rev/day] |
Abs. mag |
| Date fetched |
Epoch osculation |
Inc. [°] |
Ecc. | RA asc node [hr] |
Arg Peri. [°] |
Mean anom [°] |
Mean motion [rev/day] |
Abs. mag |
| 2026 May 08 17:57 | 2026 May 08 06:27:57 | 87.3323 | 0.00036 | 4.7371 | 87.9887 | 272.1780 | 15.50143 | – |
| 2026 May 07 17:58 | 2026 May 07 04:07:37 | 87.3325 | 0.00036 | 4.7642 | 88.1813 | 272.1780 | 15.50143 | – |
| 2026 May 06 17:57 | 2026 May 06 11:05:02 | 87.3327 | 0.00036 | 4.7818 | 88.4484 | 272.1780 | 15.50143 | – |
| 2026 May 05 17:57 | 2026 May 05 11:50:35 | 87.3327 | 0.00036 | 4.8057 | 88.2104 | 272.1780 | 15.50143 | – |
| 2026 May 04 17:57 | 2026 May 04 11:03:09 | 87.3327 | 0.00036 | 4.8313 | 88.3933 | 272.1780 | 15.50143 | – |
| 2026 May 03 17:57 | 2026 May 03 11:48:40 | 87.3326 | 0.00036 | 4.8552 | 88.5997 | 272.1780 | 15.50143 | – |
| 2026 May 02 17:57 | 2026 May 02 09:28:13 | 87.3323 | 0.00036 | 4.8823 | 88.7721 | 272.1780 | 15.50143 | – |
| 2026 May 01 17:56 | 2026 May 01 11:46:39 | 87.3320 | 0.00036 | 4.9046 | 88.8963 | 272.1780 | 15.50143 | – |
| 2026 Apr 30 17:56 | 2026 Apr 30 10:59:07 | 87.3315 | 0.00037 | 4.9302 | 89.3857 | 272.1780 | 15.50143 | – |
| 2026 Apr 29 17:57 | 2026 Apr 29 11:44:32 | 87.3313 | 0.00037 | 4.9541 | 89.8772 | 272.1780 | 15.50143 | – |
| 2026 Apr 28 17:56 | 2026 Apr 28 10:56:57 | 87.3309 | 0.00037 | 4.9797 | 89.2443 | 272.1780 | 15.50143 | – |
| 2026 Apr 27 17:58 | 2026 Apr 27 11:42:19 | 87.3307 | 0.00037 | 5.0037 | 89.0745 | 272.1780 | 15.50143 | – |
| 2026 Apr 26 17:58 | 2026 Apr 26 12:27:40 | 87.3306 | 0.00037 | 5.0276 | 89.3814 | 272.1780 | 15.50143 | – |
| 2026 Apr 25 17:58 | 2026 Apr 25 11:40:01 | 87.3306 | 0.00037 | 5.0532 | 89.4597 | 272.1780 | 15.50143 | – |
| 2026 Apr 24 17:59 | 2026 Apr 24 12:25:19 | 87.3307 | 0.00037 | 5.0771 | 90.1664 | 272.1780 | 15.50143 | – |
| 2026 Apr 23 17:57 | 2026 Apr 23 06:58:41 | 87.3309 | 0.00037 | 5.1075 | 90.5613 | 272.1780 | 15.50143 | – |
| 2026 Apr 22 17:57 | 2026 Apr 22 06:10:57 | 87.3311 | 0.00037 | 5.1330 | 90.7731 | 272.1780 | 15.50143 | – |
| 2026 Apr 21 17:57 | 2026 Apr 21 11:35:09 | 87.3311 | 0.00037 | 5.1522 | 90.6548 | 272.1780 | 15.50143 | – |
| 2026 Apr 20 17:57 | 2026 Apr 20 10:47:24 | 87.3310 | 0.00037 | 5.1777 | 90.9140 | 272.1780 | 15.50143 | – |
| 2026 Apr 19 17:58 | 2026 Apr 19 11:32:37 | 87.3308 | 0.00037 | 5.2017 | 91.6369 | 272.1780 | 15.50143 | – |
| 2026 Apr 18 17:56 | 2026 Apr 18 06:05:51 | 87.3303 | 0.00037 | 5.2320 | 91.6742 | 272.1780 | 15.50143 | – |
| 2026 Apr 16 17:57 | 2026 Apr 16 04:30:13 | 87.3294 | 0.00037 | 5.2831 | 92.6056 | 272.1780 | 15.50143 | – |
| 2026 Apr 14 17:57 | 2026 Apr 14 12:12:28 | 87.3291 | 0.00037 | 5.3247 | 93.3635 | 272.1780 | 15.50143 | – |
| 2026 Apr 13 17:57 | 2026 Apr 13 05:12:38 | 87.3291 | 0.00037 | 5.3566 | 93.8820 | 272.1780 | 15.50143 | – |
| 2026 Apr 12 17:57 | 2026 Apr 12 12:09:43 | 87.3291 | 0.00036 | 5.3742 | 94.1112 | 272.1780 | 15.50143 | – |
| 2026 Apr 11 17:57 | 2026 Apr 11 11:21:50 | 87.3293 | 0.00036 | 5.3998 | 94.5749 | 272.1780 | 15.50143 | – |